createdAt,value
2023-02-23T00:00:57.622Z,93.18
2023-02-23T00:02:05.888Z,92.82
2023-02-23T00:03:07.575Z,91.94
2023-02-23T00:04:10.356Z,91.45
2023-02-23T00:05:11.913Z,91.34
2023-02-23T00:06:14.642Z,91.15
2023-02-23T00:07:19.287Z,91.01
2023-02-23T00:08:23.499Z,90.71
2023-02-23T00:09:25.127Z,90.47
2023-02-23T00:10:30.487Z,90.13
2023-02-23T00:11:33.752Z,89.86
2023-02-23T00:12:36.212Z,90.14
2023-02-23T00:13:38.863Z,90.63
2023-02-23T00:14:41.398Z,90.64
2023-02-23T00:15:44.454Z,90.13
2023-02-23T00:16:47.063Z,89.73
2023-02-23T00:17:48.594Z,89.27
2023-02-23T00:18:53.872Z,89.01
2023-02-23T00:19:55.617Z,88.79
2023-02-23T00:20:58.721Z,88.97
2023-02-23T00:22:01.107Z,89.27
2023-02-23T00:23:04.564Z,89.75
2023-02-23T00:24:08.890Z,89.48
2023-02-23T00:25:12.630Z,89.10
2023-02-23T00:26:14.115Z,88.92
2023-02-23T00:27:19.031Z,89.07
2023-02-23T00:28:20.580Z,89.25
2023-02-23T00:29:25.688Z,89.54
2023-02-23T00:30:27.321Z,89.16
2023-02-23T00:31:31.560Z,88.57
2023-02-23T00:32:33.157Z,88.28
2023-02-23T00:33:35.660Z,88.46
2023-02-23T00:34:37.259Z,89.39
2023-02-23T00:35:39.745Z,90.81
2023-02-23T00:36:42.088Z,90.52
2023-02-23T00:37:45.883Z,90.15
2023-02-23T00:38:47.425Z,90.30
2023-02-23T00:39:50.245Z,91.99
2023-02-23T00:40:51.757Z,93.83
2023-02-23T00:41:55.700Z,94.43
2023-02-23T00:42:58.132Z,94.09
2023-02-23T00:44:01.924Z,93.10
2023-02-23T00:45:08.682Z,92.07
2023-02-23T00:46:11.484Z,91.35
2023-02-23T00:47:14.339Z,90.91
2023-02-23T00:48:16.868Z,91.23
2023-02-23T00:49:20.064Z,92.50
2023-02-23T00:50:23.222Z,96.01
2023-02-23T00:51:27.425Z,100.00
2023-02-23T00:52:29.937Z,100.00
2023-02-23T00:53:32.172Z,100.00
2023-02-23T00:54:34.773Z,100.00
2023-02-23T00:55:40.488Z,100.00
2023-02-23T00:56:43.355Z,100.00
2023-02-23T00:57:44.900Z,100.00
2023-02-23T00:58:47.317Z,100.00
2023-02-23T00:59:49.022Z,100.00
2023-02-23T01:00:51.699Z,100.00
2023-02-23T01:01:53.167Z,100.00
2023-02-23T01:02:56.906Z,100.00
2023-02-23T01:03:58.687Z,100.00
2023-02-23T01:05:01.277Z,100.00
2023-02-23T01:06:07.972Z,100.00
2023-02-23T01:07:12.916Z,100.00
2023-02-23T01:08:15.390Z,100.00
2023-02-23T01:09:27.129Z,100.00
2023-02-23T01:10:28.734Z,100.00
2023-02-23T01:11:31.874Z,100.00
2023-02-23T01:12:33.395Z,100.00
2023-02-23T01:13:36.367Z,100.00
2023-02-23T01:14:38.037Z,100.00
2023-02-23T01:15:44.430Z,100.00
2023-02-23T01:16:46.202Z,100.00
2023-02-23T01:17:48.694Z,100.00
2023-02-23T01:18:51.648Z,100.00
2023-02-23T01:19:55.183Z,100.00
2023-02-23T01:20:56.768Z,100.00
2023-02-23T01:21:59.278Z,100.00
2023-02-23T01:23:01.729Z,100.00
2023-02-23T01:24:05.107Z,99.55
2023-02-23T01:25:07.195Z,98.38
2023-02-23T01:26:16.410Z,97.69
2023-02-23T01:27:17.906Z,97.30
2023-02-23T01:28:20.567Z,96.59
2023-02-23T01:29:22.119Z,95.97
2023-02-23T01:30:24.620Z,95.86
2023-02-23T01:31:27.719Z,95.50
2023-02-23T01:32:31.515Z,94.88
2023-02-23T01:33:33.129Z,94.26
2023-02-23T01:34:37.006Z,93.37
2023-02-23T01:35:38.485Z,92.93
2023-02-23T01:36:42.972Z,92.64
2023-02-23T01:37:44.492Z,92.08
2023-02-23T01:38:46.985Z,91.95
2023-02-23T01:39:48.666Z,92.42
2023-02-23T01:40:51.214Z,92.53
2023-02-23T01:41:54.200Z,92.00
2023-02-23T01:42:59.281Z,91.37
2023-02-23T01:44:04.028Z,90.94
2023-02-23T01:45:32.090Z,90.75
2023-02-23T01:46:35.450Z,90.53
2023-02-23T01:47:38.101Z,90.50
2023-02-23T01:48:41.469Z,90.10
2023-02-23T01:49:44.693Z,90.18
2023-02-23T01:50:53.024Z,90.60
2023-02-23T01:51:59.540Z,91.36
2023-02-23T01:53:02.421Z,91.51
2023-02-23T01:54:08.949Z,91.31
2023-02-23T01:55:14.079Z,90.94
2023-02-23T01:56:22.130Z,90.86
2023-02-23T01:57:24.998Z,90.76
2023-02-23T01:58:29.965Z,90.81
2023-02-23T01:59:38.076Z,90.71
2023-02-23T02:00:42.104Z,90.94
2023-02-23T02:01:44.091Z,90.86
2023-02-23T02:02:49.037Z,91.28
2023-02-23T02:03:55.488Z,91.65
2023-02-23T02:05:00.201Z,91.19
2023-02-23T02:06:03.898Z,92.10
2023-02-23T02:07:07.851Z,93.50
2023-02-23T02:08:10.584Z,93.94
2023-02-23T02:09:17.637Z,94.12
2023-02-23T02:10:37.589Z,94.38
2023-02-23T02:11:44.391Z,93.39
2023-02-23T02:12:51.992Z,92.54
2023-02-23T02:13:56.994Z,92.25
2023-02-23T02:14:59.888Z,92.66
2023-02-23T02:16:16.629Z,93.68
2023-02-23T02:17:31.913Z,95.98
2023-02-23T02:18:41.803Z,97.08
2023-02-23T02:20:32.703Z,96.90
2023-02-23T02:22:11.833Z,94.71
2023-02-23T02:23:58.885Z,93.59
2023-02-23T02:25:20.664Z,92.16
2023-02-23T02:26:32.271Z,91.47
2023-02-23T02:27:57.900Z,91.45
2023-02-23T02:29:46.098Z,91.63
2023-02-23T02:31:21.036Z,91.33
2023-02-23T02:32:48.628Z,90.93
2023-02-23T02:34:07.977Z,91.14
2023-02-23T02:35:35.032Z,90.82
2023-02-23T02:37:10.948Z,91.51
2023-02-23T02:38:31.387Z,92.28
2023-02-23T02:39:44.881Z,92.55
2023-02-23T02:40:54.248Z,93.20
2023-02-23T02:42:06.458Z,93.84
2023-02-23T02:43:15.438Z,94.06
2023-02-23T02:44:22.117Z,93.54
2023-02-23T02:45:31.707Z,92.93
2023-02-23T02:46:38.754Z,92.51
2023-02-23T02:47:48.679Z,92.01
2023-02-23T02:48:57.810Z,91.48
2023-02-23T02:50:09.358Z,90.91
2023-02-23T02:51:21.961Z,90.46
2023-02-23T02:52:30.464Z,90.16
2023-02-23T02:53:41.753Z,89.31
2023-02-23T02:54:49.665Z,88.97
2023-02-23T02:55:52.886Z,88.99
2023-02-23T02:57:00.436Z,89.02
2023-02-23T02:58:07.678Z,89.67
2023-02-23T02:59:31.458Z,89.71
2023-02-23T03:00:56.103Z,89.97
2023-02-23T03:02:16.832Z,90.28
2023-02-23T03:03:52.322Z,89.99
2023-02-23T03:05:12.463Z,89.27
2023-02-23T03:06:33.302Z,88.83
2023-02-23T03:08:01.217Z,88.98
2023-02-23T03:09:30.276Z,89.20
2023-02-23T03:10:58.275Z,89.52
2023-02-23T03:12:26.094Z,91.66
2023-02-23T03:13:56.108Z,92.17
2023-02-23T03:15:26.272Z,91.75
2023-02-23T03:16:58.155Z,91.95
2023-02-23T03:18:35.461Z,92.10
2023-02-23T03:20:06.944Z,91.37
2023-02-23T03:21:34.718Z,90.64
2023-02-23T03:23:02.303Z,90.02
2023-02-23T03:24:36.061Z,89.56
2023-02-23T03:26:06.554Z,89.48
2023-02-23T03:27:33.858Z,88.95
2023-02-23T03:28:57.600Z,88.71
2023-02-23T03:30:23.626Z,88.38
2023-02-23T03:31:52.740Z,89.00
2023-02-23T03:33:17.027Z,89.22
2023-02-23T03:34:41.905Z,89.52
2023-02-23T03:36:09.728Z,89.58
2023-02-23T03:37:36.973Z,90.17
2023-02-23T03:39:04.857Z,90.25
2023-02-23T03:40:31.916Z,90.45
2023-02-23T03:41:54.558Z,89.78
2023-02-23T03:43:18.311Z,89.98
2023-02-23T03:44:44.708Z,89.53
2023-02-23T03:46:08.225Z,89.18
2023-02-23T03:47:32.858Z,88.88
2023-02-23T03:48:55.388Z,88.95
2023-02-23T03:50:21.915Z,89.24
2023-02-23T03:51:44.606Z,89.13
2023-02-23T03:53:10.375Z,88.92
2023-02-23T03:54:36.130Z,88.68
2023-02-23T03:56:01.442Z,89.33
2023-02-23T03:57:25.890Z,89.21
2023-02-23T03:58:50.529Z,89.50
2023-02-23T04:00:14.104Z,89.12
2023-02-23T04:01:36.435Z,89.04
2023-02-23T04:02:59.852Z,90.32
2023-02-23T04:04:21.644Z,90.15
2023-02-23T04:05:42.734Z,89.65
2023-02-23T04:07:05.699Z,89.12
2023-02-23T04:08:30.881Z,89.08
2023-02-23T04:09:52.324Z,89.22
2023-02-23T04:11:19.534Z,89.52
2023-02-23T04:12:45.012Z,89.90
2023-02-23T04:13:51.770Z,89.76
2023-02-23T04:14:57.528Z,90.54
2023-02-23T04:16:03.195Z,91.13
2023-02-23T04:17:06.334Z,91.99
2023-02-23T04:18:14.937Z,91.67
2023-02-23T04:19:16.530Z,91.61
2023-02-23T04:20:19.096Z,93.58
2023-02-23T04:21:21.191Z,95.40
2023-02-23T04:22:24.640Z,94.96
2023-02-23T04:23:27.089Z,93.88
2023-02-23T04:24:29.539Z,92.71
2023-02-23T04:25:32.494Z,91.94
2023-02-23T04:26:34.992Z,91.51
2023-02-23T04:27:36.869Z,91.28
2023-02-23T04:28:39.363Z,90.89
2023-02-23T04:29:40.988Z,90.40
2023-02-23T04:30:43.558Z,90.04
2023-02-23T04:31:46.219Z,89.53
2023-02-23T04:32:48.885Z,89.36
2023-02-23T04:33:55.032Z,89.00
2023-02-23T04:34:57.487Z,88.80
2023-02-23T04:35:59.005Z,88.75
2023-02-23T04:37:01.534Z,88.47
2023-02-23T04:38:04.042Z,89.18
2023-02-23T04:39:06.577Z,90.20
2023-02-23T04:40:09.461Z,92.08
2023-02-23T04:41:13.570Z,94.54
2023-02-23T04:42:15.447Z,98.42
2023-02-23T04:43:17.942Z,100.00
2023-02-23T04:44:19.680Z,100.00
2023-02-23T04:45:25.057Z,100.00
2023-02-23T04:46:26.683Z,100.00
2023-02-23T04:47:29.209Z,100.00
2023-02-23T04:48:30.755Z,100.00
2023-02-23T04:49:33.209Z,99.62
2023-02-23T04:50:34.840Z,98.88
2023-02-23T04:51:37.389Z,99.43
2023-02-23T04:52:39.012Z,98.79
2023-02-23T04:53:41.505Z,97.82
2023-02-23T04:54:43.316Z,96.20
2023-02-23T04:55:47.372Z,94.92
2023-02-23T04:56:50.261Z,94.05
2023-02-23T04:57:54.155Z,93.13
2023-02-23T04:58:55.668Z,92.69
2023-02-23T04:59:58.379Z,92.70
2023-02-23T05:01:04.793Z,92.83
2023-02-23T05:02:07.537Z,92.77
2023-02-23T05:03:09.279Z,92.56
2023-02-23T05:04:11.782Z,93.16
2023-02-23T05:05:13.265Z,93.45
2023-02-23T05:06:15.855Z,92.91
2023-02-23T05:07:17.496Z,92.29
2023-02-23T05:08:19.945Z,92.05
2023-02-23T05:09:21.461Z,92.29
2023-02-23T05:10:24.134Z,92.18
2023-02-23T05:11:26.576Z,91.76
2023-02-23T05:12:30.732Z,91.33
2023-02-23T05:13:32.544Z,91.76
2023-02-23T05:14:35.052Z,91.88
2023-02-23T05:15:37.285Z,92.31
2023-02-23T05:16:40.430Z,93.45
2023-02-23T05:17:42.486Z,95.49
2023-02-23T05:18:45.060Z,97.25
2023-02-23T05:19:46.608Z,97.34
2023-02-23T05:20:49.058Z,96.49
2023-02-23T05:21:50.683Z,95.18
2023-02-23T05:22:53.121Z,93.96
2023-02-23T05:23:54.746Z,93.25
2023-02-23T05:24:57.599Z,92.40
2023-02-23T05:26:04.141Z,92.24
2023-02-23T05:27:06.663Z,92.43
2023-02-23T05:28:09.523Z,94.95
2023-02-23T05:29:12.072Z,96.41
2023-02-23T05:30:13.909Z,96.32
2023-02-23T05:31:17.336Z,95.60
2023-02-23T05:32:19.094Z,95.34
2023-02-23T05:33:21.788Z,95.10
2023-02-23T05:34:24.135Z,94.60
2023-02-23T05:35:26.690Z,94.07
2023-02-23T05:36:28.763Z,93.16
2023-02-23T05:37:31.232Z,92.92
2023-02-23T05:38:32.715Z,93.44
2023-02-23T05:39:35.511Z,93.89
2023-02-23T05:40:37.952Z,93.66
2023-02-23T05:41:39.897Z,93.32
2023-02-23T05:42:42.377Z,92.77
2023-02-23T05:43:45.288Z,92.40
2023-02-23T05:44:47.761Z,92.32
2023-02-23T05:45:49.207Z,92.21
2023-02-23T05:46:51.655Z,92.02
2023-02-23T05:47:53.197Z,92.32
2023-02-23T05:48:58.135Z,92.62
2023-02-23T05:50:00.027Z,92.21
2023-02-23T05:51:03.518Z,92.05
2023-02-23T05:52:05.215Z,91.86
2023-02-23T05:53:07.889Z,91.32
2023-02-23T05:54:09.534Z,90.93
2023-02-23T05:55:13.277Z,90.45
2023-02-23T05:56:20.474Z,90.43
2023-02-23T05:57:22.966Z,90.19
2023-02-23T05:58:24.966Z,89.99
2023-02-23T05:59:28.760Z,89.74
2023-02-23T06:00:30.337Z,89.74
2023-02-23T06:01:33.212Z,89.51
2023-02-23T06:02:35.212Z,89.84
2023-02-23T06:03:37.832Z,89.91
2023-02-23T06:04:39.477Z,91.40
2023-02-23T06:05:42.210Z,93.29
2023-02-23T06:06:45.392Z,94.09
2023-02-23T06:07:46.924Z,94.00
2023-02-23T06:08:49.766Z,93.30
2023-02-23T06:09:51.400Z,92.51
2023-02-23T06:10:54.131Z,91.74
2023-02-23T06:11:55.939Z,91.20
2023-02-23T06:12:58.525Z,90.84
2023-02-23T06:14:00.690Z,90.56
2023-02-23T06:15:04.949Z,90.72
2023-02-23T06:16:08.406Z,90.79
2023-02-23T06:17:11.579Z,90.78
2023-02-23T06:18:13.148Z,90.39
2023-02-23T06:19:15.612Z,90.25
2023-02-23T06:20:17.284Z,89.81
2023-02-23T06:21:20.768Z,89.63
2023-02-23T06:22:23.024Z,89.43
2023-02-23T06:23:25.509Z,89.18
2023-02-23T06:24:28.683Z,89.16
2023-02-23T06:25:31.194Z,89.35
2023-02-23T06:26:33.252Z,89.68
2023-02-23T06:27:36.039Z,89.55
2023-02-23T06:28:37.635Z,89.47
2023-02-23T06:29:40.051Z,88.92
2023-02-23T06:30:42.980Z,88.85
2023-02-23T06:31:45.541Z,88.77
2023-02-23T06:32:47.086Z,89.24
2023-02-23T06:33:49.707Z,89.46
2023-02-23T06:34:51.183Z,89.86
2023-02-23T06:35:54.788Z,90.02
2023-02-23T06:36:57.436Z,90.70
2023-02-23T06:37:58.943Z,90.94
2023-02-23T06:39:02.032Z,90.93
2023-02-23T06:40:04.955Z,90.89
2023-02-23T06:41:09.058Z,91.04
2023-02-23T06:42:10.581Z,90.62
2023-02-23T06:43:13.260Z,90.27
2023-02-23T06:44:15.663Z,89.85
2023-02-23T06:45:19.169Z,89.92
2023-02-23T06:46:23.143Z,89.90
2023-02-23T06:47:24.659Z,89.99
2023-02-23T06:48:27.187Z,90.05
2023-02-23T06:49:28.890Z,89.81
2023-02-23T06:50:31.537Z,89.21
2023-02-23T06:51:33.006Z,88.87
2023-02-23T06:52:35.461Z,89.51
2023-02-23T06:53:38.314Z,90.12
2023-02-23T06:54:40.055Z,90.61
2023-02-23T06:55:42.535Z,90.38
2023-02-23T06:56:44.091Z,91.43
2023-02-23T06:57:49.693Z,91.74
2023-02-23T06:58:51.668Z,92.27
2023-02-23T06:59:54.452Z,92.37
2023-02-23T07:00:58.512Z,92.27
2023-02-23T07:02:01.857Z,92.17
2023-02-23T07:03:04.605Z,92.50
2023-02-23T07:04:06.264Z,92.23
2023-02-23T07:05:09.880Z,92.32
2023-02-23T07:06:11.425Z,92.61
2023-02-23T07:07:14.065Z,91.83
2023-02-23T07:08:16.316Z,91.57
2023-02-23T07:09:19.078Z,91.11
2023-02-23T07:10:20.944Z,91.10
2023-02-23T07:11:23.454Z,90.93
2023-02-23T07:12:24.953Z,90.92
2023-02-23T07:13:27.357Z,91.00
2023-02-23T07:14:28.898Z,90.45
2023-02-23T07:15:31.339Z,90.26
2023-02-23T07:16:32.897Z,90.48
2023-02-23T07:17:37.103Z,90.50
2023-02-23T07:18:38.803Z,90.78
2023-02-23T07:19:44.680Z,91.00
2023-02-23T07:20:47.093Z,91.40
2023-02-23T07:21:48.862Z,91.33
2023-02-23T07:22:52.178Z,91.78
2023-02-23T07:23:53.718Z,91.73
2023-02-23T07:24:56.128Z,91.56
2023-02-23T07:25:58.086Z,92.26
2023-02-23T07:27:00.533Z,93.12
2023-02-23T07:28:02.886Z,93.47
2023-02-23T07:29:05.322Z,93.27
2023-02-23T07:30:08.750Z,93.07
2023-02-23T07:31:11.309Z,92.62
2023-02-23T07:32:13.063Z,93.01
2023-02-23T07:33:16.990Z,92.53
2023-02-23T07:34:18.522Z,92.14
2023-02-23T07:35:21.561Z,92.22
2023-02-23T07:36:23.806Z,92.06
2023-02-23T07:37:26.568Z,92.05
2023-02-23T07:38:28.678Z,92.79
2023-02-23T07:39:31.258Z,93.77
2023-02-23T07:40:32.837Z,93.76
2023-02-23T07:41:35.329Z,95.82
2023-02-23T07:42:37.207Z,97.95
2023-02-23T07:43:39.638Z,97.82
2023-02-23T07:44:42.142Z,97.51
2023-02-23T07:45:45.606Z,96.85
2023-02-23T07:46:49.483Z,96.33
2023-02-23T07:47:51.064Z,95.06
2023-02-23T07:48:54.972Z,94.96
2023-02-23T07:49:57.379Z,94.93
2023-02-23T07:51:00.156Z,94.91
2023-02-23T07:52:01.927Z,94.52
2023-02-23T07:53:04.386Z,95.20
2023-02-23T07:54:06.649Z,94.61
2023-02-23T07:55:10.863Z,94.73
2023-02-23T07:56:12.901Z,95.42
2023-02-23T07:57:15.615Z,94.62
2023-02-23T07:58:17.101Z,95.69
2023-02-23T07:59:19.569Z,94.99
2023-02-23T08:00:21.790Z,94.29
2023-02-23T08:01:24.407Z,94.04
2023-02-23T08:02:26.232Z,94.90
2023-02-23T08:03:28.902Z,95.29
2023-02-23T08:04:31.802Z,95.41
2023-02-23T08:05:34.417Z,95.62
2023-02-23T08:06:35.986Z,95.39
2023-02-23T08:07:38.694Z,94.34
2023-02-23T08:08:40.332Z,94.88
2023-02-23T08:09:42.832Z,94.47
2023-02-23T08:10:44.344Z,95.32
2023-02-23T08:11:46.763Z,95.59
2023-02-23T08:12:48.314Z,97.69
2023-02-23T08:13:50.759Z,97.57
2023-02-23T08:14:53.588Z,96.10
2023-02-23T08:15:56.112Z,95.33
2023-02-23T08:16:57.693Z,95.60
2023-02-23T08:18:00.746Z,95.14
2023-02-23T08:19:02.849Z,95.42
2023-02-23T08:20:08.171Z,93.84
2023-02-23T08:21:09.681Z,92.79
2023-02-23T08:22:12.126Z,92.51
2023-02-23T08:23:13.676Z,92.11
2023-02-23T08:24:16.168Z,91.43
2023-02-23T08:25:19.008Z,90.51
2023-02-23T08:26:21.460Z,90.50
2023-02-23T08:27:24.012Z,90.70
2023-02-23T08:28:25.540Z,89.80
2023-02-23T08:29:28.092Z,88.54
2023-02-23T08:30:30.658Z,88.37
2023-02-23T08:31:33.352Z,87.90
2023-02-23T08:32:35.890Z,87.23
2023-02-23T08:33:39.191Z,87.30
2023-02-23T08:34:43.227Z,87.89
2023-02-23T08:35:46.129Z,87.83
2023-02-23T08:36:48.563Z,88.20
2023-02-23T08:37:50.216Z,87.68
2023-02-23T08:38:54.199Z,88.34
2023-02-23T08:39:56.726Z,87.76
2023-02-23T08:40:59.994Z,87.78
2023-02-23T08:42:02.927Z,87.76
2023-02-23T08:43:04.376Z,88.05
2023-02-23T08:44:07.125Z,88.23
2023-02-23T08:45:10.034Z,89.43
2023-02-23T08:46:12.805Z,88.73
2023-02-23T08:47:16.353Z,87.73
2023-02-23T08:48:18.792Z,87.72
2023-02-23T08:49:21.435Z,86.98
2023-02-23T08:50:27.265Z,87.51
2023-02-23T08:51:31.382Z,88.00
2023-02-23T08:52:32.927Z,88.71
2023-02-23T08:53:35.396Z,87.24
2023-02-23T08:54:37.786Z,85.52
2023-02-23T08:55:39.280Z,85.99
2023-02-23T08:56:42.175Z,87.12
2023-02-23T08:57:44.851Z,86.74
2023-02-23T08:58:47.602Z,86.33
2023-02-23T08:59:49.152Z,85.32
2023-02-23T09:00:51.687Z,85.11
2023-02-23T09:01:56.168Z,84.84
2023-02-23T09:02:58.611Z,85.00
2023-02-23T09:04:00.419Z,84.74
2023-02-23T09:05:02.861Z,84.78
2023-02-23T09:06:11.085Z,84.82
2023-02-23T09:07:19.265Z,85.22
2023-02-23T09:08:22.873Z,84.67
2023-02-23T09:09:25.321Z,83.99
2023-02-23T09:10:29.012Z,84.25
2023-02-23T09:11:31.410Z,82.89
2023-02-23T09:12:32.988Z,83.44
2023-02-23T09:13:36.049Z,82.70
2023-02-23T09:14:37.542Z,82.85
2023-02-23T09:15:40.841Z,81.07
2023-02-23T09:16:44.479Z,81.50
2023-02-23T09:17:47.263Z,81.16
2023-02-23T09:18:50.099Z,81.12
2023-02-23T09:19:51.858Z,81.60
2023-02-23T09:20:54.672Z,81.89
2023-02-23T09:21:56.229Z,81.41
2023-02-23T09:23:00.186Z,81.21
2023-02-23T09:24:02.392Z,81.44
2023-02-23T09:25:05.623Z,80.71
2023-02-23T09:26:08.860Z,79.96
2023-02-23T09:27:12.731Z,79.90
2023-02-23T09:28:17.031Z,80.25
2023-02-23T09:29:19.421Z,79.87
2023-02-23T09:30:21.429Z,79.95
2023-02-23T09:31:24.938Z,80.94
2023-02-23T09:32:26.714Z,81.20
2023-02-23T09:33:29.266Z,81.21
2023-02-23T09:34:30.748Z,81.30
2023-02-23T09:35:34.441Z,79.97
2023-02-23T09:36:36.985Z,79.76
2023-02-23T09:37:38.468Z,79.98
2023-02-23T09:38:42.231Z,80.51
2023-02-23T09:39:45.645Z,80.44
2023-02-23T09:40:49.822Z,80.44
2023-02-23T09:42:00.569Z,80.66
2023-02-23T09:43:06.895Z,79.55
2023-02-23T09:44:16.655Z,79.03
2023-02-23T09:45:29.896Z,79.14
2023-02-23T09:46:38.812Z,80.92
2023-02-23T09:47:50.460Z,80.35
2023-02-23T09:48:53.022Z,79.44
2023-02-23T09:49:58.857Z,79.44
2023-02-23T09:51:06.106Z,79.16
2023-02-23T09:52:15.880Z,79.05
2023-02-23T09:53:29.347Z,78.62
2023-02-23T09:54:34.439Z,79.09
2023-02-23T09:55:41.436Z,79.24
2023-02-23T09:56:48.509Z,79.17
2023-02-23T09:57:50.582Z,77.85
2023-02-23T09:58:53.306Z,78.62
2023-02-23T09:59:54.895Z,78.95
2023-02-23T10:01:17.988Z,78.52
2023-02-23T10:02:25.369Z,78.04
2023-02-23T10:03:30.722Z,77.15
2023-02-23T10:04:37.883Z,76.85
2023-02-23T10:05:44.430Z,78.14
2023-02-23T10:06:53.390Z,78.96
2023-02-23T10:07:58.789Z,78.86
2023-02-23T10:09:14.448Z,79.19
2023-02-23T10:10:27.703Z,78.56
2023-02-23T10:11:40.349Z,77.50
2023-02-23T10:12:55.259Z,78.28
2023-02-23T10:14:11.526Z,78.56
2023-02-23T10:15:18.891Z,79.01
2023-02-23T10:16:25.559Z,78.74
2023-02-23T10:17:39.986Z,79.82
2023-02-23T10:18:47.949Z,80.34
2023-02-23T10:19:56.551Z,80.43
2023-02-23T10:21:04.159Z,81.81
2023-02-23T10:22:09.188Z,81.65
2023-02-23T10:23:16.085Z,80.93
2023-02-23T10:24:25.231Z,81.25
2023-02-23T10:25:36.487Z,82.47
2023-02-23T10:26:44.064Z,81.67
2023-02-23T10:27:49.480Z,81.59
2023-02-23T10:28:53.764Z,81.70
2023-02-23T10:29:58.705Z,80.08
2023-02-23T10:31:01.999Z,79.42
2023-02-23T10:32:08.865Z,78.97
2023-02-23T10:33:17.002Z,78.97
2023-02-23T10:34:18.648Z,77.59
2023-02-23T10:35:23.457Z,77.90
2023-02-23T10:36:36.661Z,77.66
2023-02-23T10:37:39.342Z,77.59
2023-02-23T10:38:41.093Z,77.25
2023-02-23T10:39:43.776Z,77.46
2023-02-23T10:40:51.386Z,76.53
2023-02-23T10:41:55.769Z,76.32
2023-02-23T10:43:01.161Z,76.49
2023-02-23T10:44:15.805Z,74.50
2023-02-23T10:45:23.618Z,75.27
2023-02-23T10:46:32.582Z,75.69
2023-02-23T10:47:37.606Z,75.41
2023-02-23T10:48:43.195Z,76.61
2023-02-23T10:49:48.425Z,76.38
2023-02-23T10:50:51.811Z,76.36
2023-02-23T10:51:58.098Z,76.30
2023-02-23T10:53:05.533Z,75.71
2023-02-23T10:54:38.900Z,75.97
2023-02-23T10:55:41.435Z,75.91
2023-02-23T10:56:46.399Z,75.63
2023-02-23T10:57:49.124Z,74.72
2023-02-23T10:58:53.709Z,75.14
2023-02-23T11:00:01.056Z,74.86
2023-02-23T11:01:06.311Z,74.99
2023-02-23T11:02:21.820Z,75.34
2023-02-23T11:03:29.413Z,75.58
2023-02-23T11:04:35.031Z,74.85
2023-02-23T11:05:45.463Z,74.82
2023-02-23T11:06:48.622Z,73.91
2023-02-23T11:07:51.542Z,73.19
2023-02-23T11:08:54.602Z,73.28
2023-02-23T11:09:56.622Z,73.86
2023-02-23T11:11:15.985Z,74.47
2023-02-23T11:12:25.569Z,75.21
2023-02-23T11:13:29.163Z,74.89
2023-02-23T11:14:33.141Z,73.17
2023-02-23T11:15:50.615Z,72.80
2023-02-23T11:16:57.043Z,74.99
2023-02-23T11:18:00.684Z,73.87
2023-02-23T11:19:05.230Z,73.42
2023-02-23T11:20:24.868Z,73.50
2023-02-23T11:21:33.532Z,73.80
2023-02-23T11:22:37.182Z,73.67
2023-02-23T11:23:41.586Z,72.13
2023-02-23T11:24:45.780Z,71.72
2023-02-23T11:25:49.556Z,71.70
2023-02-23T11:26:53.989Z,72.06
2023-02-23T11:27:58.748Z,71.40
2023-02-23T11:29:05.656Z,71.13
2023-02-23T11:30:12.981Z,71.09
2023-02-23T11:31:19.199Z,71.60
2023-02-23T11:32:24.632Z,72.23
2023-02-23T11:33:31.535Z,73.15
2023-02-23T11:34:41.030Z,73.40
2023-02-23T11:35:42.707Z,74.20
2023-02-23T11:36:45.213Z,73.88
2023-02-23T11:37:47.070Z,73.86
2023-02-23T11:39:02.046Z,74.01
2023-02-23T11:40:20.268Z,74.05
2023-02-23T11:41:25.044Z,73.12
2023-02-23T11:42:33.450Z,72.42
2023-02-23T11:43:36.385Z,72.78
2023-02-23T11:44:38.950Z,72.88
2023-02-23T11:45:48.278Z,71.88
2023-02-23T11:46:51.442Z,71.76
2023-02-23T11:47:56.200Z,72.09
2023-02-23T11:49:01.900Z,72.29
2023-02-23T11:50:05.936Z,72.97
2023-02-23T11:51:07.698Z,73.01
2023-02-23T11:52:16.144Z,73.13
2023-02-23T11:53:22.295Z,73.23
2023-02-23T11:54:28.442Z,72.93
2023-02-23T11:55:32.758Z,72.39
2023-02-23T11:56:35.515Z,70.79
2023-02-23T11:57:38.271Z,70.03
2023-02-23T11:58:44.827Z,71.62
2023-02-23T11:59:48.123Z,71.75
2023-02-23T12:00:58.616Z,71.84
2023-02-23T12:02:07.637Z,72.81
2023-02-23T12:03:22.860Z,73.72
2023-02-23T12:04:30.164Z,73.12
2023-02-23T12:05:34.152Z,73.40
2023-02-23T12:06:39.129Z,72.45
2023-02-23T12:07:47.620Z,71.75
2023-02-23T12:08:54.674Z,71.80
2023-02-23T12:10:03.605Z,71.01
2023-02-23T12:11:13.502Z,71.28
2023-02-23T12:12:20.402Z,70.63
2023-02-23T12:13:30.067Z,71.80
2023-02-23T12:14:41.140Z,71.84
2023-02-23T12:15:50.547Z,72.36
2023-02-23T12:16:55.966Z,73.49
2023-02-23T12:18:04.154Z,72.73
2023-02-23T12:19:21.768Z,73.12
2023-02-23T12:20:28.030Z,73.03
2023-02-23T12:21:37.373Z,73.11
2023-02-23T12:22:44.608Z,72.99
2023-02-23T12:23:52.503Z,73.24
2023-02-23T12:25:02.796Z,72.69
2023-02-23T12:26:11.753Z,74.72
2023-02-23T12:27:18.448Z,78.72
2023-02-23T12:28:27.282Z,78.58
2023-02-23T12:29:36.238Z,77.39
2023-02-23T12:30:46.337Z,76.09
2023-02-23T12:31:54.226Z,76.23
2023-02-23T12:33:00.492Z,76.25
2023-02-23T12:34:12.464Z,76.12
2023-02-23T12:35:21.379Z,75.55
2023-02-23T12:36:31.695Z,75.12
2023-02-23T12:37:39.897Z,74.61
2023-02-23T12:38:51.732Z,75.03
2023-02-23T12:39:59.529Z,75.22
2023-02-23T12:41:07.984Z,74.42
2023-02-23T12:42:16.944Z,73.51
2023-02-23T12:43:26.032Z,72.96
2023-02-23T12:44:38.219Z,73.35
2023-02-23T12:45:48.691Z,73.10
2023-02-23T12:46:54.417Z,73.71
2023-02-23T12:48:12.727Z,72.84
2023-02-23T12:49:25.554Z,73.63
2023-02-23T12:50:30.543Z,73.84
2023-02-23T12:51:36.830Z,74.39
2023-02-23T12:52:44.247Z,74.65
2023-02-23T12:53:47.307Z,74.74
2023-02-23T12:54:50.133Z,75.49
2023-02-23T12:56:15.881Z,75.76
2023-02-23T12:57:28.884Z,74.85
2023-02-23T12:58:41.888Z,74.69
2023-02-23T13:00:05.026Z,73.22
2023-02-23T13:01:12.727Z,73.63
2023-02-23T13:02:23.378Z,74.42
2023-02-23T13:03:46.407Z,74.98
2023-02-23T13:05:13.099Z,74.68
2023-02-23T13:06:23.697Z,75.08
2023-02-23T13:07:38.434Z,74.60
2023-02-23T13:08:55.307Z,74.54
2023-02-23T13:10:13.010Z,74.32
2023-02-23T13:11:25.118Z,75.65
2023-02-23T13:12:45.153Z,75.12
2023-02-23T13:13:51.763Z,74.93
2023-02-23T13:15:03.055Z,75.00
2023-02-23T13:16:17.726Z,75.85
2023-02-23T13:17:38.070Z,75.28
2023-02-23T13:18:47.754Z,75.62
2023-02-23T13:19:56.048Z,75.75
2023-02-23T13:21:12.600Z,75.67
2023-02-23T13:22:27.729Z,75.03
2023-02-23T13:23:37.279Z,75.07
2023-02-23T13:24:42.998Z,76.10
2023-02-23T13:25:54.408Z,75.93
2023-02-23T13:27:01.773Z,74.89
2023-02-23T13:28:04.212Z,74.17
2023-02-23T13:29:11.776Z,74.78
2023-02-23T13:30:16.576Z,74.13
2023-02-23T13:31:26.477Z,74.47
2023-02-23T13:32:32.947Z,75.47
2023-02-23T13:33:43.932Z,75.88
2023-02-23T13:34:52.465Z,76.03
2023-02-23T13:35:55.888Z,76.11
2023-02-23T13:37:01.848Z,76.17
2023-02-23T13:38:15.337Z,76.09
2023-02-23T13:39:46.293Z,75.98
2023-02-23T13:40:54.642Z,75.74
2023-02-23T13:42:09.697Z,75.30
2023-02-23T13:43:23.039Z,75.10
2023-02-23T13:44:31.810Z,75.35
2023-02-23T13:45:49.705Z,75.99
2023-02-23T13:46:59.014Z,75.33
2023-02-23T13:48:07.795Z,74.90
2023-02-23T13:49:24.765Z,74.95
2023-02-23T13:50:32.222Z,75.23
2023-02-23T13:51:42.799Z,75.54
2023-02-23T13:52:46.189Z,75.74
2023-02-23T13:54:01.094Z,76.86
2023-02-23T13:55:04.320Z,76.40
2023-02-23T13:56:10.200Z,77.45
2023-02-23T13:57:16.718Z,77.63
2023-02-23T13:58:27.610Z,77.19
2023-02-23T13:59:33.170Z,77.26
2023-02-23T14:00:34.932Z,77.43
2023-02-23T14:01:40.011Z,76.83
2023-02-23T14:02:43.014Z,77.00
2023-02-23T14:03:55.677Z,77.27
2023-02-23T14:05:02.104Z,77.44
2023-02-23T14:06:04.380Z,77.98
2023-02-23T14:07:19.627Z,78.77
2023-02-23T14:08:27.964Z,78.60
2023-02-23T14:09:33.676Z,78.81
2023-02-23T14:10:39.005Z,78.65
2023-02-23T14:11:52.447Z,78.31
2023-02-23T14:13:07.166Z,78.57
2023-02-23T14:14:14.211Z,78.62
2023-02-23T14:15:41.632Z,78.60
2023-02-23T14:16:46.431Z,78.05
2023-02-23T14:18:00.574Z,77.58
2023-02-23T14:19:32.044Z,77.51
2023-02-23T14:20:47.894Z,77.70
2023-02-23T14:21:52.930Z,77.10
2023-02-23T14:23:26.886Z,77.42